sensor_id;sensor_type;location;lat;lon;timestamp;P1;durP1;ratioP1;P2;durP2;ratioP2
72408;SDS011;60402;48.082;11.628;2022-12-16T00:01:43;20.98;;;7.13;;
72408;SDS011;60402;48.082;11.628;2022-12-16T00:04:08;19.67;;;7.60;;
72408;SDS011;60402;48.082;11.628;2022-12-16T00:06:34;15.57;;;6.55;;
72408;SDS011;60402;48.082;11.628;2022-12-16T00:08:59;21.52;;;7.45;;
72408;SDS011;60402;48.082;11.628;2022-12-16T00:11:25;19.90;;;7.97;;
72408;SDS011;60402;48.082;11.628;2022-12-16T00:13:51;17.58;;;6.72;;
72408;SDS011;60402;48.082;11.628;2022-12-16T00:16:17;14.77;;;6.20;;
72408;SDS011;60402;48.082;11.628;2022-12-16T00:18:44;18.77;;;6.50;;
72408;SDS011;60402;48.082;11.628;2022-12-16T00:21:10;18.23;;;6.80;;
72408;SDS011;60402;48.082;11.628;2022-12-16T00:23:36;22.02;;;8.02;;
72408;SDS011;60402;48.082;11.628;2022-12-16T00:26:03;19.15;;;6.63;;
72408;SDS011;60402;48.082;11.628;2022-12-16T00:28:29;18.92;;;7.47;;
72408;SDS011;60402;48.082;11.628;2022-12-16T00:30:55;17.45;;;7.28;;
72408;SDS011;60402;48.082;11.628;2022-12-16T00:33:21;17.80;;;6.70;;
72408;SDS011;60402;48.082;11.628;2022-12-16T00:35:48;19.58;;;8.15;;
72408;SDS011;60402;48.082;11.628;2022-12-16T00:38:14;19.75;;;6.78;;
72408;SDS011;60402;48.082;11.628;2022-12-16T00:40:40;20.00;;;7.32;;
72408;SDS011;60402;48.082;11.628;2022-12-16T00:43:05;17.90;;;7.00;;
72408;SDS011;60402;48.082;11.628;2022-12-16T00:45:30;18.45;;;7.22;;
72408;SDS011;60402;48.082;11.628;2022-12-16T00:47:56;17.42;;;6.88;;
72408;SDS011;60402;48.082;11.628;2022-12-16T00:50:21;20.38;;;6.53;;
72408;SDS011;60402;48.082;11.628;2022-12-16T00:52:47;20.00;;;7.72;;
72408;SDS011;60402;48.082;11.628;2022-12-16T00:55:13;19.83;;;7.47;;
72408;SDS011;60402;48.082;11.628;2022-12-16T00:57:39;19.70;;;8.00;;
72408;SDS011;60402;48.082;11.628;2022-12-16T01:00:05;20.05;;;7.43;;
72408;SDS011;60402;48.082;11.628;2022-12-16T01:02:36;18.80;;;7.45;;
72408;SDS011;60402;48.082;11.628;2022-12-16T01:05:01;22.60;;;7.63;;
72408;SDS011;60402;48.082;11.628;2022-12-16T01:07:26;19.25;;;6.97;;
72408;SDS011;60402;48.082;11.628;2022-12-16T01:09:52;20.77;;;8.13;;
72408;SDS011;60402;48.082;11.628;2022-12-16T01:12:17;20.60;;;7.97;;
72408;SDS011;60402;48.082;11.628;2022-12-16T01:14:42;20.75;;;6.93;;
72408;SDS011;60402;48.082;11.628;2022-12-16T01:17:07;21.47;;;7.23;;
72408;SDS011;60402;48.082;11.628;2022-12-16T01:19:33;20.03;;;7.33;;
72408;SDS011;60402;48.082;11.628;2022-12-16T01:21:58;19.10;;;6.53;;
72408;SDS011;60402;48.082;11.628;2022-12-16T01:24:23;18.37;;;7.13;;
72408;SDS011;60402;48.082;11.628;2022-12-16T01:26:48;21.42;;;8.02;;
72408;SDS011;60402;48.082;11.628;2022-12-16T01:29:14;21.43;;;7.70;;
72408;SDS011;60402;48.082;11.628;2022-12-16T01:31:39;21.98;;;7.95;;
72408;SDS011;60402;48.082;11.628;2022-12-16T01:34:04;21.88;;;7.65;;
72408;SDS011;60402;48.082;11.628;2022-12-16T01:36:30;20.02;;;6.60;;
72408;SDS011;60402;48.082;11.628;2022-12-16T01:38:55;21.85;;;7.05;;
72408;SDS011;60402;48.082;11.628;2022-12-16T01:41:20;20.63;;;7.47;;
72408;SDS011;60402;48.082;11.628;2022-12-16T01:43:47;18.40;;;7.05;;
72408;SDS011;60402;48.082;11.628;2022-12-16T01:54:01;19.85;;;7.20;;
72408;SDS011;60402;48.082;11.628;2022-12-16T01:56:32;23.10;;;7.05;;
72408;SDS011;60402;48.082;11.628;2022-12-16T01:59:01;17.02;;;6.93;;
72408;SDS011;60402;48.082;11.628;2022-12-16T02:01:27;20.30;;;6.93;;
72408;SDS011;60402;48.082;11.628;2022-12-16T02:03:53;21.73;;;7.70;;
72408;SDS011;60402;48.082;11.628;2022-12-16T02:06:20;22.95;;;7.40;;
72408;SDS011;60402;48.082;11.628;2022-12-16T02:08:46;16.77;;;6.72;;
72408;SDS011;60402;48.082;11.628;2022-12-16T02:16:53;16.98;;;6.53;;
72408;SDS011;60402;48.082;11.628;2022-12-16T02:25:08;17.85;;;6.38;;
72408;SDS011;60402;48.082;11.628;2022-12-16T02:30:35;18.85;;;6.85;;
72408;SDS011;60402;48.082;11.628;2022-12-16T02:35:55;20.08;;;6.50;;
72408;SDS011;60402;48.082;11.628;2022-12-16T02:38:48;17.95;;;6.82;;
72408;SDS011;60402;48.082;11.628;2022-12-16T02:44:39;21.33;;;7.53;;
72408;SDS011;60402;48.082;11.628;2022-12-16T02:47:13;17.52;;;7.32;;
72408;SDS011;60402;48.082;11.628;2022-12-16T02:49:46;18.48;;;6.95;;
72408;SDS011;60402;48.082;11.628;2022-12-16T02:52:16;20.50;;;7.65;;
72408;SDS011;60402;48.082;11.628;2022-12-16T02:54:45;18.65;;;7.70;;
72408;SDS011;60402;48.082;11.628;2022-12-16T03:00:04;16.52;;;6.65;;
72408;SDS011;60402;48.082;11.628;2022-12-16T03:02:42;18.67;;;7.20;;
72408;SDS011;60402;48.082;11.628;2022-12-16T03:05:21;17.13;;;7.20;;
72408;SDS011;60402;48.082;11.628;2022-12-16T03:07:51;18.00;;;7.60;;
72408;SDS011;60402;48.082;11.628;2022-12-16T03:10:20;20.60;;;7.40;;
72408;SDS011;60402;48.082;11.628;2022-12-16T03:12:51;15.73;;;7.38;;
72408;SDS011;60402;48.082;11.628;2022-12-16T03:15:20;19.73;;;7.53;;
72408;SDS011;60402;48.082;11.628;2022-12-16T03:17:49;18.02;;;7.85;;
72408;SDS011;60402;48.082;11.628;2022-12-16T03:20:20;18.75;;;8.15;;
72408;SDS011;60402;48.082;11.628;2022-12-16T03:23:00;18.67;;;7.85;;
72408;SDS011;60402;48.082;11.628;2022-12-16T03:25:30;19.08;;;7.82;;
72408;SDS011;60402;48.082;11.628;2022-12-16T03:30:26;21.00;;;8.60;;
72408;SDS011;60402;48.082;11.628;2022-12-16T03:35:32;19.83;;;8.57;;
72408;SDS011;60402;48.082;11.628;2022-12-16T03:38:02;18.58;;;8.27;;
72408;SDS011;60402;48.082;11.628;2022-12-16T03:40:30;21.88;;;8.43;;
72408;SDS011;60402;48.082;11.628;2022-12-16T03:42:57;19.38;;;8.35;;
72408;SDS011;60402;48.082;11.628;2022-12-16T03:45:26;19.23;;;8.65;;
72408;SDS011;60402;48.082;11.628;2022-12-16T03:47:56;23.20;;;9.13;;
72408;SDS011;60402;48.082;11.628;2022-12-16T03:50:25;24.40;;;9.32;;
72408;SDS011;60402;48.082;11.628;2022-12-16T03:52:53;21.52;;;9.35;;
72408;SDS011;60402;48.082;11.628;2022-12-16T03:55:18;22.27;;;9.18;;
72408;SDS011;60402;48.082;11.628;2022-12-16T03:57:44;21.65;;;8.93;;
72408;SDS011;60402;48.082;11.628;2022-12-16T04:00:09;24.13;;;9.15;;
72408;SDS011;60402;48.082;11.628;2022-12-16T04:02:35;23.45;;;9.57;;
72408;SDS011;60402;48.082;11.628;2022-12-16T04:05:00;15.52;;;7.38;;
72408;SDS011;60402;48.082;11.628;2022-12-16T04:07:26;20.53;;;8.73;;
72408;SDS011;60402;48.082;11.628;2022-12-16T04:09:51;17.13;;;8.15;;
72408;SDS011;60402;48.082;11.628;2022-12-16T04:12:17;17.70;;;7.50;;
72408;SDS011;60402;48.082;11.628;2022-12-16T04:15:02;18.58;;;8.48;;
72408;SDS011;60402;48.082;11.628;2022-12-16T04:17:47;18.05;;;7.90;;
72408;SDS011;60402;48.082;11.628;2022-12-16T04:20:31;21.15;;;8.35;;
72408;SDS011;60402;48.082;11.628;2022-12-16T04:23:18;21.92;;;8.80;;
72408;SDS011;60402;48.082;11.628;2022-12-16T04:26:03;18.05;;;7.90;;
72408;SDS011;60402;48.082;11.628;2022-12-16T04:28:29;21.40;;;8.63;;
72408;SDS011;60402;48.082;11.628;2022-12-16T04:30:55;20.60;;;9.07;;
72408;SDS011;60402;48.082;11.628;2022-12-16T04:33:20;23.13;;;8.95;;
72408;SDS011;60402;48.082;11.628;2022-12-16T04:36:05;23.52;;;9.77;;
72408;SDS011;60402;48.082;11.628;2022-12-16T04:38:50;20.98;;;8.68;;
72408;SDS011;60402;48.082;11.628;2022-12-16T04:41:35;22.52;;;8.55;;
72408;SDS011;60402;48.082;11.628;2022-12-16T04:44:19;22.67;;;8.07;;
72408;SDS011;60402;48.082;11.628;2022-12-16T04:47:02;21.73;;;8.75;;
72408;SDS011;60402;48.082;11.628;2022-12-16T04:49:46;22.50;;;9.80;;
72408;SDS011;60402;48.082;11.628;2022-12-16T04:52:30;22.75;;;9.95;;
72408;SDS011;60402;48.082;11.628;2022-12-16T04:55:14;22.90;;;9.07;;
72408;SDS011;60402;48.082;11.628;2022-12-16T04:57:59;26.48;;;11.45;;
72408;SDS011;60402;48.082;11.628;2022-12-16T05:00:45;28.45;;;10.20;;
72408;SDS011;60402;48.082;11.628;2022-12-16T05:03:30;26.98;;;10.48;;
72408;SDS011;60402;48.082;11.628;2022-12-16T05:06:14;26.20;;;11.02;;
72408;SDS011;60402;48.082;11.628;2022-12-16T05:08:58;27.65;;;10.52;;
72408;SDS011;60402;48.082;11.628;2022-12-16T05:11:42;26.35;;;10.13;;
72408;SDS011;60402;48.082;11.628;2022-12-16T05:14:27;26.75;;;11.23;;
72408;SDS011;60402;48.082;11.628;2022-12-16T05:17:11;28.25;;;10.27;;
72408;SDS011;60402;48.082;11.628;2022-12-16T05:19:54;24.33;;;10.13;;
72408;SDS011;60402;48.082;11.628;2022-12-16T05:22:38;23.92;;;9.95;;
72408;SDS011;60402;48.082;11.628;2022-12-16T05:25:22;27.55;;;10.45;;
72408;SDS011;60402;48.082;11.628;2022-12-16T05:28:06;33.05;;;11.15;;
72408;SDS011;60402;48.082;11.628;2022-12-16T05:30:50;26.52;;;11.52;;
72408;SDS011;60402;48.082;11.628;2022-12-16T05:33:34;25.27;;;11.10;;
72408;SDS011;60402;48.082;11.628;2022-12-16T05:36:18;28.60;;;11.75;;
72408;SDS011;60402;48.082;11.628;2022-12-16T05:39:02;28.23;;;11.00;;
72408;SDS011;60402;48.082;11.628;2022-12-16T05:42:06;30.17;;;11.52;;
72408;SDS011;60402;48.082;11.628;2022-12-16T05:44:50;26.10;;;9.95;;
72408;SDS011;60402;48.082;11.628;2022-12-16T05:47:35;32.70;;;11.48;;
72408;SDS011;60402;48.082;11.628;2022-12-16T05:50:18;29.95;;;11.45;;
72408;SDS011;60402;48.082;11.628;2022-12-16T05:53:02;27.70;;;10.88;;
72408;SDS011;60402;48.082;11.628;2022-12-16T05:55:46;25.50;;;10.48;;
72408;SDS011;60402;48.082;11.628;2022-12-16T05:58:30;30.15;;;10.88;;
72408;SDS011;60402;48.082;11.628;2022-12-16T06:01:14;26.35;;;10.35;;
72408;SDS011;60402;48.082;11.628;2022-12-16T06:03:58;26.27;;;10.15;;
72408;SDS011;60402;48.082;11.628;2022-12-16T06:06:42;25.88;;;10.43;;
72408;SDS011;60402;48.082;11.628;2022-12-16T06:09:27;29.55;;;11.85;;
72408;SDS011;60402;48.082;11.628;2022-12-16T06:12:10;29.60;;;11.15;;
72408;SDS011;60402;48.082;11.628;2022-12-16T06:14:54;31.15;;;11.73;;
72408;SDS011;60402;48.082;11.628;2022-12-16T06:17:42;27.40;;;11.63;;
72408;SDS011;60402;48.082;11.628;2022-12-16T06:23:55;28.67;;;10.43;;
72408;SDS011;60402;48.082;11.628;2022-12-16T06:26:39;27.58;;;10.82;;
72408;SDS011;60402;48.082;11.628;2022-12-16T06:29:25;28.92;;;11.88;;
72408;SDS011;60402;48.082;11.628;2022-12-16T06:32:11;29.55;;;10.38;;
72408;SDS011;60402;48.082;11.628;2022-12-16T06:35:01;28.75;;;10.85;;
72408;SDS011;60402;48.082;11.628;2022-12-16T06:37:46;30.42;;;11.35;;
72408;SDS011;60402;48.082;11.628;2022-12-16T06:40:31;28.15;;;11.07;;
72408;SDS011;60402;48.082;11.628;2022-12-16T06:43:22;33.00;;;12.65;;
72408;SDS011;60402;48.082;11.628;2022-12-16T06:46:06;29.08;;;10.80;;
72408;SDS011;60402;48.082;11.628;2022-12-16T06:48:50;36.08;;;12.90;;
72408;SDS011;60402;48.082;11.628;2022-12-16T06:51:34;39.88;;;13.13;;
72408;SDS011;60402;48.082;11.628;2022-12-16T06:54:18;32.05;;;11.32;;
72408;SDS011;60402;48.082;11.628;2022-12-16T06:57:05;31.70;;;11.75;;
72408;SDS011;60402;48.082;11.628;2022-12-16T06:59:49;36.05;;;13.32;;
72408;SDS011;60402;48.082;11.628;2022-12-16T07:02:40;34.58;;;14.05;;
72408;SDS011;60402;48.082;11.628;2022-12-16T07:05:24;40.80;;;15.02;;
72408;SDS011;60402;48.082;11.628;2022-12-16T07:08:08;33.33;;;13.27;;
72408;SDS011;60402;48.082;11.628;2022-12-16T07:10:51;36.78;;;12.73;;
72408;SDS011;60402;48.082;11.628;2022-12-16T07:13:35;36.65;;;12.45;;
72408;SDS011;60402;48.082;11.628;2022-12-16T07:16:20;34.83;;;13.68;;
72408;SDS011;60402;48.082;11.628;2022-12-16T07:19:03;35.90;;;13.52;;
72408;SDS011;60402;48.082;11.628;2022-12-16T07:21:47;33.72;;;12.70;;
72408;SDS011;60402;48.082;11.628;2022-12-16T07:24:32;35.55;;;14.38;;
72408;SDS011;60402;48.082;11.628;2022-12-16T07:27:16;33.95;;;12.93;;
72408;SDS011;60402;48.082;11.628;2022-12-16T07:30:00;37.55;;;14.52;;
72408;SDS011;60402;48.082;11.628;2022-12-16T07:32:57;33.47;;;12.90;;
72408;SDS011;60402;48.082;11.628;2022-12-16T07:35:41;37.78;;;14.20;;
72408;SDS011;60402;48.082;11.628;2022-12-16T07:38:28;40.92;;;14.60;;
72408;SDS011;60402;48.082;11.628;2022-12-16T07:41:12;43.30;;;15.27;;
72408;SDS011;60402;48.082;11.628;2022-12-16T07:43:59;39.33;;;14.05;;
72408;SDS011;60402;48.082;11.628;2022-12-16T07:46:43;34.67;;;12.55;;
72408;SDS011;60402;48.082;11.628;2022-12-16T07:49:27;36.13;;;13.63;;
72408;SDS011;60402;48.082;11.628;2022-12-16T07:52:14;41.25;;;14.98;;
72408;SDS011;60402;48.082;11.628;2022-12-16T07:54:58;39.67;;;14.18;;
72408;SDS011;60402;48.082;11.628;2022-12-16T07:57:47;43.00;;;14.90;;
72408;SDS011;60402;48.082;11.628;2022-12-16T08:00:33;37.83;;;14.05;;
72408;SDS011;60402;48.082;11.628;2022-12-16T08:03:17;37.30;;;13.55;;
72408;SDS011;60402;48.082;11.628;2022-12-16T08:06:01;44.88;;;15.15;;
72408;SDS011;60402;48.082;11.628;2022-12-16T08:08:45;40.45;;;13.98;;
72408;SDS011;60402;48.082;11.628;2022-12-16T08:11:29;39.08;;;15.10;;
72408;SDS011;60402;48.082;11.628;2022-12-16T08:14:13;42.05;;;14.88;;
72408;SDS011;60402;48.082;11.628;2022-12-16T08:16:57;37.78;;;14.20;;
72408;SDS011;60402;48.082;11.628;2022-12-16T08:19:40;41.65;;;14.60;;
72408;SDS011;60402;48.082;11.628;2022-12-16T08:22:24;44.67;;;15.73;;
72408;SDS011;60402;48.082;11.628;2022-12-16T08:25:08;37.78;;;12.90;;
72408;SDS011;60402;48.082;11.628;2022-12-16T08:27:53;32.55;;;13.73;;
72408;SDS011;60402;48.082;11.628;2022-12-16T08:30:38;39.45;;;14.43;;
72408;SDS011;60402;48.082;11.628;2022-12-16T08:33:22;39.72;;;15.43;;
72408;SDS011;60402;48.082;11.628;2022-12-16T08:36:06;37.85;;;13.63;;
72408;SDS011;60402;48.082;11.628;2022-12-16T08:38:50;36.53;;;14.50;;
72408;SDS011;60402;48.082;11.628;2022-12-16T08:41:34;36.42;;;14.25;;
72408;SDS011;60402;48.082;11.628;2022-12-16T08:44:18;29.95;;;12.13;;
72408;SDS011;60402;48.082;11.628;2022-12-16T08:47:05;35.95;;;13.75;;
72408;SDS011;60402;48.082;11.628;2022-12-16T08:49:49;35.58;;;13.25;;
72408;SDS011;60402;48.082;11.628;2022-12-16T08:52:33;39.42;;;14.10;;
72408;SDS011;60402;48.082;11.628;2022-12-16T08:55:19;35.17;;;14.15;;
72408;SDS011;60402;48.082;11.628;2022-12-16T08:58:08;35.38;;;13.98;;
72408;SDS011;60402;48.082;11.628;2022-12-16T09:00:52;34.15;;;13.27;;
72408;SDS011;60402;48.082;11.628;2022-12-16T09:03:36;39.17;;;14.30;;
72408;SDS011;60402;48.082;11.628;2022-12-16T09:06:20;33.20;;;13.00;;
72408;SDS011;60402;48.082;11.628;2022-12-16T09:09:07;37.97;;;13.65;;
72408;SDS011;60402;48.082;11.628;2022-12-16T09:11:51;36.55;;;13.43;;
72408;SDS011;60402;48.082;11.628;2022-12-16T09:14:35;39.80;;;13.60;;
72408;SDS011;60402;48.082;11.628;2022-12-16T09:17:19;39.90;;;14.93;;
72408;SDS011;60402;48.082;11.628;2022-12-16T09:20:03;40.85;;;15.77;;
72408;SDS011;60402;48.082;11.628;2022-12-16T09:22:47;36.17;;;15.43;;
72408;SDS011;60402;48.082;11.628;2022-12-16T09:25:31;39.35;;;15.13;;
72408;SDS011;60402;48.082;11.628;2022-12-16T09:28:15;38.65;;;13.75;;
72408;SDS011;60402;48.082;11.628;2022-12-16T09:30:59;33.55;;;13.25;;
72408;SDS011;60402;48.082;11.628;2022-12-16T09:33:43;39.33;;;15.07;;
72408;SDS011;60402;48.082;11.628;2022-12-16T09:36:27;38.22;;;13.55;;
72408;SDS011;60402;48.082;11.628;2022-12-16T09:39:11;34.28;;;12.30;;
72408;SDS011;60402;48.082;11.628;2022-12-16T09:41:58;35.80;;;13.95;;
72408;SDS011;60402;48.082;11.628;2022-12-16T09:48:04;33.92;;;12.02;;
72408;SDS011;60402;48.082;11.628;2022-12-16T09:50:53;33.03;;;12.48;;
72408;SDS011;60402;48.082;11.628;2022-12-16T09:53:41;34.60;;;12.75;;
72408;SDS011;60402;48.082;11.628;2022-12-16T09:56:27;34.08;;;13.75;;
72408;SDS011;60402;48.082;11.628;2022-12-16T09:59:14;26.48;;;11.75;;
72408;SDS011;60402;48.082;11.628;2022-12-16T10:02:02;35.28;;;12.48;;
72408;SDS011;60402;48.082;11.628;2022-12-16T10:04:52;32.63;;;11.20;;
72408;SDS011;60402;48.082;11.628;2022-12-16T10:07:45;31.05;;;11.65;;
72408;SDS011;60402;48.082;11.628;2022-12-16T10:13:53;35.42;;;12.85;;
72408;SDS011;60402;48.082;11.628;2022-12-16T10:17:02;30.17;;;11.27;;
72408;SDS011;60402;48.082;11.628;2022-12-16T10:29:36;30.05;;;12.10;;
72408;SDS011;60402;48.082;11.628;2022-12-16T10:32:26;31.77;;;12.38;;
72408;SDS011;60402;48.082;11.628;2022-12-16T10:35:22;33.83;;;12.65;;
72408;SDS011;60402;48.082;11.628;2022-12-16T10:38:54;30.83;;;11.52;;
72408;SDS011;60402;48.082;11.628;2022-12-16T10:41:17;31.40;;;12.82;;
72408;SDS011;60402;48.082;11.628;2022-12-16T10:44:15;34.10;;;12.38;;
72408;SDS011;60402;48.082;11.628;2022-12-16T10:47:22;35.40;;;13.40;;
72408;SDS011;60402;48.082;11.628;2022-12-16T10:50:11;32.28;;;13.05;;
72408;SDS011;60402;48.082;11.628;2022-12-16T10:52:56;32.80;;;13.88;;
72408;SDS011;60402;48.082;11.628;2022-12-16T10:55:50;34.55;;;12.60;;
72408;SDS011;60402;48.082;11.628;2022-12-16T10:58:46;38.88;;;14.70;;
72408;SDS011;60402;48.082;11.628;2022-12-16T11:01:32;34.45;;;14.00;;
72408;SDS011;60402;48.082;11.628;2022-12-16T11:04:50;32.38;;;13.13;;
72408;SDS011;60402;48.082;11.628;2022-12-16T11:07:32;32.95;;;13.32;;
72408;SDS011;60402;48.082;11.628;2022-12-16T11:13:11;34.67;;;13.82;;
72408;SDS011;60402;48.082;11.628;2022-12-16T11:16:05;31.88;;;13.88;;
72408;SDS011;60402;48.082;11.628;2022-12-16T11:18:56;34.38;;;12.48;;
72408;SDS011;60402;48.082;11.628;2022-12-16T11:21:41;35.15;;;13.32;;
72408;SDS011;60402;48.082;11.628;2022-12-16T11:24:26;33.25;;;12.50;;
72408;SDS011;60402;48.082;11.628;2022-12-16T11:27:29;36.15;;;13.70;;
72408;SDS011;60402;48.082;11.628;2022-12-16T11:30:15;33.03;;;12.95;;
72408;SDS011;60402;48.082;11.628;2022-12-16T11:33:10;29.35;;;13.48;;
72408;SDS011;60402;48.082;11.628;2022-12-16T11:36:15;32.33;;;12.48;;
72408;SDS011;60402;48.082;11.628;2022-12-16T11:39:16;32.50;;;13.00;;
72408;SDS011;60402;48.082;11.628;2022-12-16T11:42:03;39.13;;;14.70;;
72408;SDS011;60402;48.082;11.628;2022-12-16T11:44:55;36.35;;;13.52;;
72408;SDS011;60402;48.082;11.628;2022-12-16T11:50:48;39.47;;;15.43;;
72408;SDS011;60402;48.082;11.628;2022-12-16T11:53:38;33.50;;;14.27;;
72408;SDS011;60402;48.082;11.628;2022-12-16T11:56:29;39.90;;;15.35;;
72408;SDS011;60402;48.082;11.628;2022-12-16T11:59:25;34.65;;;14.63;;
72408;SDS011;60402;48.082;11.628;2022-12-16T12:13:20;33.03;;;14.35;;
72408;SDS011;60402;48.082;11.628;2022-12-16T12:22:50;42.30;;;17.25;;
72408;SDS011;60402;48.082;11.628;2022-12-16T12:31:21;47.42;;;17.00;;
72408;SDS011;60402;48.082;11.628;2022-12-16T12:34:36;33.90;;;14.52;;
72408;SDS011;60402;48.082;11.628;2022-12-16T12:37:42;36.55;;;15.40;;
72408;SDS011;60402;48.082;11.628;2022-12-16T12:43:50;34.78;;;14.30;;
72408;SDS011;60402;48.082;11.628;2022-12-16T12:46:44;35.97;;;14.38;;
72408;SDS011;60402;48.082;11.628;2022-12-16T12:58:54;32.85;;;13.05;;
72408;SDS011;60402;48.082;11.628;2022-12-16T13:01:43;31.48;;;12.10;;
72408;SDS011;60402;48.082;11.628;2022-12-16T13:04:29;32.75;;;12.85;;
72408;SDS011;60402;48.082;11.628;2022-12-16T13:07:16;34.47;;;14.13;;
72408;SDS011;60402;48.082;11.628;2022-12-16T13:10:11;28.10;;;12.77;;
72408;SDS011;60402;48.082;11.628;2022-12-16T13:13:32;34.33;;;13.43;;
72408;SDS011;60402;48.082;11.628;2022-12-16T13:22:25;38.13;;;14.88;;
72408;SDS011;60402;48.082;11.628;2022-12-16T13:28:23;37.78;;;13.15;;
72408;SDS011;60402;48.082;11.628;2022-12-16T13:31:09;30.95;;;13.18;;
72408;SDS011;60402;48.082;11.628;2022-12-16T13:33:55;31.05;;;12.52;;
72408;SDS011;60402;48.082;11.628;2022-12-16T13:36:45;34.72;;;13.57;;
72408;SDS011;60402;48.082;11.628;2022-12-16T13:39:37;32.33;;;12.48;;
72408;SDS011;60402;48.082;11.628;2022-12-16T13:45:33;36.72;;;13.95;;
72408;SDS011;60402;48.082;11.628;2022-12-16T13:48:26;29.23;;;11.85;;
72408;SDS011;60402;48.082;11.628;2022-12-16T13:54:40;31.48;;;11.57;;
72408;SDS011;60402;48.082;11.628;2022-12-16T13:57:29;25.90;;;11.43;;
72408;SDS011;60402;48.082;11.628;2022-12-16T14:00:23;31.20;;;12.57;;
72408;SDS011;60402;48.082;11.628;2022-12-16T14:03:20;33.15;;;11.98;;
72408;SDS011;60402;48.082;11.628;2022-12-16T14:06:16;29.27;;;12.00;;
72408;SDS011;60402;48.082;11.628;2022-12-16T14:12:24;39.88;;;14.70;;
72408;SDS011;60402;48.082;11.628;2022-12-16T14:21:41;43.83;;;16.77;;
72408;SDS011;60402;48.082;11.628;2022-12-16T14:24:31;35.38;;;13.77;;
72408;SDS011;60402;48.082;11.628;2022-12-16T14:27:20;34.78;;;13.90;;
72408;SDS011;60402;48.082;11.628;2022-12-16T14:33:15;35.10;;;12.30;;
72408;SDS011;60402;48.082;11.628;2022-12-16T14:35:59;31.80;;;11.75;;
72408;SDS011;60402;48.082;11.628;2022-12-16T14:38:46;33.95;;;13.10;;
72408;SDS011;60402;48.082;11.628;2022-12-16T14:41:32;29.08;;;12.55;;
72408;SDS011;60402;48.082;11.628;2022-12-16T14:44:20;31.05;;;12.68;;
72408;SDS011;60402;48.082;11.628;2022-12-16T14:47:14;29.58;;;11.93;;
72408;SDS011;60402;48.082;11.628;2022-12-16T14:50:00;31.55;;;12.45;;
72408;SDS011;60402;48.082;11.628;2022-12-16T14:53:05;29.77;;;11.70;;
72408;SDS011;60402;48.082;11.628;2022-12-16T14:56:07;24.55;;;11.10;;
72408;SDS011;60402;48.082;11.628;2022-12-16T14:59:11;26.35;;;11.50;;
72408;SDS011;60402;48.082;11.628;2022-12-16T15:02:39;28.80;;;11.05;;
72408;SDS011;60402;48.082;11.628;2022-12-16T15:05:24;29.90;;;11.77;;
72408;SDS011;60402;48.082;11.628;2022-12-16T15:08:17;30.67;;;11.63;;
72408;SDS011;60402;48.082;11.628;2022-12-16T15:11:03;24.92;;;10.32;;
72408;SDS011;60402;48.082;11.628;2022-12-16T15:13:53;30.95;;;12.02;;
72408;SDS011;60402;48.082;11.628;2022-12-16T15:16:43;28.48;;;10.85;;
72408;SDS011;60402;48.082;11.628;2022-12-16T15:19:30;30.90;;;12.18;;
72408;SDS011;60402;48.082;11.628;2022-12-16T15:22:16;24.13;;;9.93;;
72408;SDS011;60402;48.082;11.628;2022-12-16T15:25:00;31.58;;;11.82;;
72408;SDS011;60402;48.082;11.628;2022-12-16T15:27:52;31.02;;;11.27;;
72408;SDS011;60402;48.082;11.628;2022-12-16T15:30:38;24.00;;;10.40;;
72408;SDS011;60402;48.082;11.628;2022-12-16T15:33:28;26.50;;;11.40;;
72408;SDS011;60402;48.082;11.628;2022-12-16T15:36:30;27.15;;;10.70;;
72408;SDS011;60402;48.082;11.628;2022-12-16T15:39:28;25.00;;;10.48;;
72408;SDS011;60402;48.082;11.628;2022-12-16T15:42:25;25.67;;;11.23;;
72408;SDS011;60402;48.082;11.628;2022-12-16T15:45:19;30.75;;;11.70;;
72408;SDS011;60402;48.082;11.628;2022-12-16T15:48:28;25.15;;;9.88;;
72408;SDS011;60402;48.082;11.628;2022-12-16T15:51:22;28.95;;;11.32;;
72408;SDS011;60402;48.082;11.628;2022-12-16T16:00:17;27.48;;;11.63;;
72408;SDS011;60402;48.082;11.628;2022-12-16T16:03:01;28.38;;;11.60;;
72408;SDS011;60402;48.082;11.628;2022-12-16T16:05:45;25.85;;;10.50;;
72408;SDS011;60402;48.082;11.628;2022-12-16T16:08:29;31.10;;;11.32;;
72408;SDS011;60402;48.082;11.628;2022-12-16T16:11:13;21.52;;;8.13;;
72408;SDS011;60402;48.082;11.628;2022-12-16T16:13:57;25.52;;;9.88;;
72408;SDS011;60402;48.082;11.628;2022-12-16T16:16:41;24.25;;;10.25;;
72408;SDS011;60402;48.082;11.628;2022-12-16T16:19:25;24.00;;;9.73;;
72408;SDS011;60402;48.082;11.628;2022-12-16T16:22:17;22.80;;;9.40;;
72408;SDS011;60402;48.082;11.628;2022-12-16T16:25:01;18.88;;;7.40;;
72408;SDS011;60402;48.082;11.628;2022-12-16T16:27:46;19.80;;;8.43;;
72408;SDS011;60402;48.082;11.628;2022-12-16T16:30:30;23.08;;;9.82;;
72408;SDS011;60402;48.082;11.628;2022-12-16T16:33:14;25.05;;;9.77;;
72408;SDS011;60402;48.082;11.628;2022-12-16T16:35:58;23.05;;;8.60;;
72408;SDS011;60402;48.082;11.628;2022-12-16T16:38:42;23.55;;;8.80;;
72408;SDS011;60402;48.082;11.628;2022-12-16T16:41:26;23.77;;;9.57;;
72408;SDS011;60402;48.082;11.628;2022-12-16T16:44:10;20.52;;;9.90;;
72408;SDS011;60402;48.082;11.628;2022-12-16T16:46:54;24.15;;;9.48;;
72408;SDS011;60402;48.082;11.628;2022-12-16T16:49:40;20.85;;;9.45;;
72408;SDS011;60402;48.082;11.628;2022-12-16T16:52:27;18.65;;;8.55;;
72408;SDS011;60402;48.082;11.628;2022-12-16T16:55:16;18.98;;;6.85;;
72408;SDS011;60402;48.082;11.628;2022-12-16T16:58:10;22.67;;;9.75;;
72408;SDS011;60402;48.082;11.628;2022-12-16T17:01:13;21.30;;;8.60;;
72408;SDS011;60402;48.082;11.628;2022-12-16T17:03:58;27.10;;;10.93;;
72408;SDS011;60402;48.082;11.628;2022-12-16T17:06:43;22.50;;;9.15;;
72408;SDS011;60402;48.082;11.628;2022-12-16T17:09:26;25.05;;;10.50;;
72408;SDS011;60402;48.082;11.628;2022-12-16T17:12:21;23.27;;;9.25;;
72408;SDS011;60402;48.082;11.628;2022-12-16T17:15:17;22.15;;;9.32;;
72408;SDS011;60402;48.082;11.628;2022-12-16T17:18:08;20.63;;;8.45;;
72408;SDS011;60402;48.082;11.628;2022-12-16T17:20:52;22.73;;;8.88;;
72408;SDS011;60402;48.082;11.628;2022-12-16T17:23:37;55.28;;;14.50;;
72408;SDS011;60402;48.082;11.628;2022-12-16T17:26:22;30.55;;;11.23;;
72408;SDS011;60402;48.082;11.628;2022-12-16T17:29:07;25.95;;;9.38;;
72408;SDS011;60402;48.082;11.628;2022-12-16T17:32:14;25.23;;;9.00;;
72408;SDS011;60402;48.082;11.628;2022-12-16T17:34:58;26.60;;;10.32;;
72408;SDS011;60402;48.082;11.628;2022-12-16T17:37:42;33.67;;;11.85;;
72408;SDS011;60402;48.082;11.628;2022-12-16T17:40:27;28.30;;;11.45;;
72408;SDS011;60402;48.082;11.628;2022-12-16T17:43:11;28.52;;;11.38;;
72408;SDS011;60402;48.082;11.628;2022-12-16T17:46:02;24.67;;;10.15;;
72408;SDS011;60402;48.082;11.628;2022-12-16T17:48:51;26.95;;;8.85;;
72408;SDS011;60402;48.082;11.628;2022-12-16T17:51:39;26.50;;;10.40;;
72408;SDS011;60402;48.082;11.628;2022-12-16T17:54:28;24.25;;;10.00;;
72408;SDS011;60402;48.082;11.628;2022-12-16T17:57:12;31.92;;;10.77;;